createdAt,value
2023-03-22T00:01:23.354Z,5.900
2023-03-22T00:02:22.870Z,6.699
2023-03-22T00:03:23.042Z,6.199
2023-03-22T00:04:22.615Z,6.400
2023-03-22T00:05:22.636Z,6
2023-03-22T00:06:22.882Z,6.300
2023-03-22T00:07:23.225Z,6.400
2023-03-22T00:08:22.653Z,6
2023-03-22T00:09:23.240Z,6.699
2023-03-22T00:10:22.462Z,6.199
2023-03-22T00:11:22.696Z,6
2023-03-22T00:12:22.679Z,5.900
2023-03-22T00:13:22.536Z,5.599
2023-03-22T00:14:22.338Z,6.199
2023-03-22T00:15:22.188Z,6
2023-03-22T00:16:22.617Z,6.300
2023-03-22T00:17:22.985Z,5.699
2023-03-22T00:18:22.171Z,6.300
2023-03-22T00:19:22.309Z,5.800
2023-03-22T00:20:22.939Z,6.199
2023-03-22T00:21:22.934Z,6.099
2023-03-22T00:22:22.806Z,6.199
2023-03-22T00:23:22.471Z,5.5
2023-03-22T00:25:22.936Z,5.699
2023-03-22T00:26:22.775Z,5.400
2023-03-22T00:27:22.488Z,5.699
2023-03-22T00:28:22.547Z,5.5
2023-03-22T00:29:22.593Z,5.800
2023-03-22T00:30:23.017Z,5.900
2023-03-22T00:31:22.670Z,5.199
2023-03-22T00:32:22.575Z,5.699
2023-03-22T00:33:22.710Z,6.300
2023-03-22T00:34:23.232Z,6
2023-03-22T00:35:23.097Z,5.900
2023-03-22T00:36:22.403Z,5.800
2023-03-22T00:37:22.770Z,5.5
2023-03-22T00:38:29.939Z,5.900
2023-03-22T00:39:22.610Z,5.800
2023-03-22T00:41:22.674Z,6
2023-03-22T00:42:22.226Z,6.099
2023-03-22T00:43:22.585Z,6
2023-03-22T00:44:22.820Z,6.199
2023-03-22T00:45:22.339Z,5.900
2023-03-22T00:46:22.079Z,6.099
2023-03-22T00:48:22.629Z,5.599
2023-03-22T00:49:22.291Z,5.900
2023-03-22T00:50:23.060Z,6
2023-03-22T00:51:22.785Z,6.5
2023-03-22T00:52:22.738Z,5.900
2023-03-22T00:53:22.392Z,5.699
2023-03-22T00:54:22.253Z,5.5
2023-03-22T00:55:22.794Z,5.900
2023-03-22T00:56:22.207Z,5.099
2023-03-22T00:58:22.054Z,5.900
2023-03-22T00:59:22.622Z,5.800
2023-03-22T01:00:23.650Z,5.099
2023-03-22T01:01:25.857Z,5.800
2023-03-22T01:03:22.503Z,6
2023-03-22T01:05:22.506Z,6.199
2023-03-22T01:06:22.482Z,5.699
2023-03-22T01:07:27.627Z,5.800
2023-03-22T01:08:22.147Z,5.5
2023-03-22T01:09:22.940Z,5.800
2023-03-22T01:10:22.367Z,5.699
2023-03-22T01:11:21.872Z,5.599
2023-03-22T01:12:22.206Z,6.300
2023-03-22T01:13:22.489Z,5.900
2023-03-22T01:14:22.655Z,5.300
2023-03-22T01:15:22.755Z,5.599
2023-03-22T01:16:22.568Z,6
2023-03-22T01:17:22.164Z,5.900
2023-03-22T01:18:23.021Z,5.5
2023-03-22T01:19:22.514Z,5.599
2023-03-22T01:20:22.359Z,5.800
2023-03-22T01:21:22.157Z,5.400
2023-03-22T01:22:22.392Z,5.800
2023-03-22T01:23:22.179Z,5.699
2023-03-22T01:24:22.941Z,6
2023-03-22T01:25:22.546Z,5.800
2023-03-22T01:26:22.023Z,6.099
2023-03-22T01:27:22.701Z,5.699
2023-03-22T01:28:22.139Z,5.400
2023-03-22T01:29:22.748Z,5.800
2023-03-22T01:30:23.151Z,5.599
2023-03-22T01:31:22.611Z,6.099
2023-03-22T01:32:22.435Z,5.800
2023-03-22T01:33:21.658Z,5.5
2023-03-22T01:34:22.420Z,5.800
2023-03-22T01:36:22.148Z,5.900
2023-03-22T01:37:36.662Z,6
2023-03-22T01:38:22.331Z,6.099
2023-03-22T01:39:22.263Z,5.699
2023-03-22T01:40:22.190Z,6.300
2023-03-22T01:41:22.353Z,5.900
2023-03-22T01:42:22.190Z,6.300
2023-03-22T01:43:22.506Z,5.800
2023-03-22T01:44:22.262Z,6.300
2023-03-22T01:45:22.560Z,6
2023-03-22T01:46:22.072Z,5.900
2023-03-22T01:47:22.705Z,5.800
2023-03-22T01:48:22.228Z,5.900
2023-03-22T01:49:22.041Z,6.300
2023-03-22T01:50:23.039Z,5.900
2023-03-22T01:51:22.442Z,6.099
2023-03-22T01:52:22.078Z,6
2023-03-22T01:53:22.258Z,6.699
2023-03-22T01:54:22.649Z,6.300
2023-03-22T01:56:22.170Z,5.800
2023-03-22T01:57:22.852Z,6.400
2023-03-22T01:58:22.051Z,5.599
2023-03-22T01:59:22.550Z,5.900
2023-03-22T02:00:23.054Z,6.5
2023-03-22T02:01:22.957Z,6.699
2023-03-22T02:03:22.346Z,6.900
2023-03-22T02:04:22.376Z,6.599
2023-03-22T02:05:22.538Z,6.5
2023-03-22T02:06:22.654Z,7.099
2023-03-22T02:07:22.727Z,6.800
2023-03-22T02:08:22.438Z,7.199
2023-03-22T02:09:22.570Z,7.300
2023-03-22T02:10:22.507Z,7.599
2023-03-22T02:11:22.604Z,7.199
2023-03-22T02:12:22.138Z,6.900
2023-03-22T02:13:22.749Z,7.400
2023-03-22T02:14:23.386Z,7.099
2023-03-22T02:16:24.173Z,7.400
2023-03-22T02:17:22.513Z,7.099
2023-03-22T02:18:22.424Z,7.300
2023-03-22T02:19:21.932Z,7.5
2023-03-22T02:21:22.336Z,7.300
2023-03-22T02:22:22.379Z,7.199
2023-03-22T02:23:22.546Z,7.800
2023-03-22T02:24:22.298Z,7.300
2023-03-22T02:25:22.505Z,7
2023-03-22T02:26:22.053Z,7.099
2023-03-22T02:27:22.243Z,7.300
2023-03-22T02:28:22.098Z,7.599
2023-03-22T02:29:22.590Z,7.199
2023-03-22T02:30:21.943Z,7.5
2023-03-22T02:32:22.080Z,7.800
2023-03-22T02:33:22.662Z,7.300
2023-03-22T02:34:22.401Z,7.5
2023-03-22T02:35:22.387Z,7.300
2023-03-22T02:36:22.466Z,7.5
2023-03-22T02:37:22.706Z,6.800
2023-03-22T02:38:21.960Z,7.300
2023-03-22T02:39:22.514Z,7
2023-03-22T02:40:22.469Z,7.5
2023-03-22T02:41:21.983Z,7.599
2023-03-22T02:42:22.782Z,7.199
2023-03-22T02:43:21.859Z,6.900
2023-03-22T02:44:22.377Z,6.800
2023-03-22T02:45:22.786Z,6.900
2023-03-22T02:46:22.545Z,6.699
2023-03-22T02:47:22.469Z,6.5
2023-03-22T02:48:22.335Z,6.599
2023-03-22T02:49:21.881Z,6.5
2023-03-22T02:50:22.972Z,6.699
2023-03-22T02:51:21.964Z,6.800
2023-03-22T02:52:22.867Z,6.199
2023-03-22T02:53:22.200Z,6.800
2023-03-22T02:54:22.349Z,6.599
2023-03-22T02:55:22.016Z,6.699
2023-03-22T02:56:22.663Z,6.900
2023-03-22T02:57:21.937Z,6.599
2023-03-22T02:58:21.782Z,6.199
2023-03-22T02:59:22.018Z,6.699
2023-03-22T03:00:22.955Z,6.800
2023-03-22T03:01:22.692Z,6.5
2023-03-22T03:02:22.280Z,6.800
2023-03-22T03:04:22.387Z,6.699
2023-03-22T03:05:22.495Z,6.599
2023-03-22T03:06:23.035Z,6.900
2023-03-22T03:07:22.881Z,6.699
2023-03-22T03:08:22.365Z,7
2023-03-22T03:09:23.112Z,6.400
2023-03-22T03:10:22.661Z,6.199
2023-03-22T03:11:21.922Z,6.5
2023-03-22T03:12:21.976Z,6.599
2023-03-22T03:13:22.260Z,6.699
2023-03-22T03:14:22.571Z,6.599
2023-03-22T03:15:22.654Z,6
2023-03-22T03:16:21.776Z,6.699
2023-03-22T03:17:21.985Z,6.5
2023-03-22T03:18:21.935Z,7
2023-03-22T03:19:22.089Z,6.5
2023-03-22T03:20:23.034Z,6.199
2023-03-22T03:21:21.948Z,6.5
2023-03-22T03:22:21.959Z,6.199
2023-03-22T03:23:22.064Z,6.099
2023-03-22T03:24:22.444Z,6
2023-03-22T03:25:22.089Z,6.599
2023-03-22T03:26:22.362Z,6.400
2023-03-22T03:27:22.498Z,6.5
2023-03-22T03:28:22.440Z,6.900
2023-03-22T03:29:23.077Z,6.5
2023-03-22T03:30:22.792Z,6.300
2023-03-22T03:33:21.946Z,6
2023-03-22T03:34:22.211Z,6.300
2023-03-22T03:37:22.194Z,6.5
2023-03-22T03:38:21.925Z,6.400
2023-03-22T03:39:22.128Z,6.699
2023-03-22T03:40:22.431Z,6.599
2023-03-22T03:42:21.920Z,6.5
2023-03-22T03:43:22.096Z,6.400
2023-03-22T03:44:22.124Z,6.599
2023-03-22T03:45:22.338Z,6.699
2023-03-22T03:47:22.507Z,6.800
2023-03-22T03:48:21.951Z,6.599
2023-03-22T03:49:22.053Z,6.400
2023-03-22T03:50:22.340Z,5.800
2023-03-22T03:51:22.552Z,6.599
2023-03-22T03:52:22.088Z,5.900
2023-03-22T03:53:22.233Z,6.099
2023-03-22T03:54:36.497Z,6
2023-03-22T03:56:22.500Z,5.300
2023-03-22T03:57:21.920Z,6.199
2023-03-22T03:58:21.976Z,6
2023-03-22T03:59:22.841Z,5.900
2023-03-22T04:00:37.237Z,5.599
2023-03-22T04:01:22.740Z,5.300
2023-03-22T04:02:22.871Z,5.900
2023-03-22T04:03:22.522Z,5.199
2023-03-22T04:04:22.693Z,5
2023-03-22T04:05:22.418Z,6.199
2023-03-22T04:06:22.459Z,5.900
2023-03-22T04:07:21.751Z,6.099
2023-03-22T04:08:22.107Z,6
2023-03-22T04:09:22.469Z,6.800
2023-03-22T04:10:23.220Z,6.599
2023-03-22T04:11:22.051Z,6.099
2023-03-22T04:12:22.481Z,6.400
2023-03-22T04:13:22.573Z,6.099
2023-03-22T04:14:21.951Z,6.699
2023-03-22T04:15:22.494Z,6.300
2023-03-22T04:17:22.526Z,6.400
2023-03-22T04:18:21.948Z,6.599
2023-03-22T04:19:22.923Z,6.800
2023-03-22T04:20:44.664Z,6.199
2023-03-22T04:21:22.440Z,6.599
2023-03-22T04:22:22.266Z,6.699
2023-03-22T04:23:22.845Z,6.300
2023-03-22T04:24:23.070Z,6.199
2023-03-22T04:25:22.691Z,6.400
2023-03-22T04:26:22.268Z,6.699
2023-03-22T04:27:22.555Z,6
2023-03-22T04:28:22.073Z,6.300
2023-03-22T04:29:22.423Z,6.599
2023-03-22T04:30:22.147Z,6.199
2023-03-22T04:31:22.453Z,6.300
2023-03-22T04:32:22.037Z,5.800
2023-03-22T04:33:23.186Z,5.900
2023-03-22T04:34:22.519Z,6.5
2023-03-22T04:35:22.280Z,6.699
2023-03-22T04:36:22.883Z,6.599
2023-03-22T04:37:22.317Z,6.699
2023-03-22T04:38:21.981Z,6.5
2023-03-22T04:39:22.636Z,6.199
2023-03-22T04:40:22.543Z,6.5
2023-03-22T04:41:22.870Z,6.300
2023-03-22T04:42:22.160Z,5.800
2023-03-22T04:43:22.613Z,5.900
2023-03-22T04:44:22.416Z,5.599
2023-03-22T04:45:22.678Z,5.699
2023-03-22T04:46:22.902Z,5.800
2023-03-22T04:47:22.537Z,6.099
2023-03-22T04:49:22.545Z,5.599
2023-03-22T04:53:21.820Z,5.400
2023-03-22T04:54:22.650Z,5.699
2023-03-22T04:55:22.307Z,5.199
2023-03-22T04:58:22.166Z,5.400
2023-03-22T04:59:22.413Z,5.199
2023-03-22T05:00:24.077Z,4.900
2023-03-22T05:01:23.081Z,5
2023-03-22T05:02:22.958Z,4.599
2023-03-22T05:03:22.696Z,4.699
2023-03-22T05:04:22.245Z,4.099
2023-03-22T05:05:22.785Z,4.5
2023-03-22T05:06:22.864Z,4.699
2023-03-22T05:07:22.316Z,5.099
2023-03-22T05:08:21.846Z,4.800
2023-03-22T05:09:23.575Z,4.900
2023-03-22T05:10:22.437Z,4.400
2023-03-22T05:11:21.949Z,3.900
2023-03-22T05:12:22.288Z,4.599
2023-03-22T05:13:22.153Z,4
2023-03-22T05:15:23.252Z,4.699
2023-03-22T05:16:21.985Z,4.5
2023-03-22T05:17:22.310Z,4.699
2023-03-22T05:18:22.085Z,4.199
2023-03-22T05:19:22.660Z,4.5
2023-03-22T05:20:22.559Z,3.799
2023-03-22T05:22:22.757Z,3.900
2023-03-22T05:23:21.994Z,3.799
2023-03-22T05:24:22.532Z,3.900
2023-03-22T05:25:22.583Z,3.799
2023-03-22T05:26:22.586Z,3.599
2023-03-22T05:27:22.481Z,3.700
2023-03-22T05:28:21.719Z,3.900
2023-03-22T05:29:22.249Z,3.700
2023-03-22T05:30:22.933Z,3.5
2023-03-22T05:31:22.401Z,3.299
2023-03-22T05:33:22.471Z,3
2023-03-22T05:34:22.743Z,3.099
2023-03-22T05:35:22.423Z,3
2023-03-22T05:36:22.297Z,3.200
2023-03-22T05:37:22.727Z,3.099
2023-03-22T05:38:22.473Z,3
2023-03-22T05:39:22.415Z,2.700
2023-03-22T05:40:22.783Z,2.799
2023-03-22T05:41:22.790Z,3.200
2023-03-22T05:42:22.153Z,2.900
2023-03-22T05:43:21.763Z,2.799
2023-03-22T05:44:22.273Z,3.099
2023-03-22T05:45:23.150Z,2.5
2023-03-22T05:47:22.599Z,2.599
2023-03-22T05:48:22.411Z,2.5
2023-03-22T05:49:22.161Z,2.599
2023-03-22T05:50:22.704Z,2.900
2023-03-22T05:51:22.815Z,2.599
2023-03-22T05:52:22.450Z,2.700
2023-03-22T05:53:22.299Z,2.299
2023-03-22T05:54:23.277Z,2.799
2023-03-22T05:55:22.493Z,2.299
2023-03-22T05:56:22.316Z,2.599
2023-03-22T05:57:22.173Z,2.700
2023-03-22T05:58:22.909Z,2.299
2023-03-22T05:59:22.798Z,2.700
2023-03-22T06:00:23.920Z,2.5
2023-03-22T06:01:22.852Z,2.200
2023-03-22T06:02:22.776Z,2.5
2023-03-22T06:03:22.802Z,2.400
2023-03-22T06:04:23.070Z,2.5
2023-03-22T06:06:22.286Z,2.299
2023-03-22T06:08:23.715Z,2.099
2023-03-22T06:09:28.320Z,2.299
2023-03-22T06:10:23.048Z,2.200
2023-03-22T06:11:22.707Z,2.099
2023-03-22T06:12:22.388Z,2.299
2023-03-22T06:15:23.019Z,2.200
2023-03-22T06:16:23.143Z,2.299
2023-03-22T06:17:22.337Z,2.5
2023-03-22T06:18:22.427Z,2.400
2023-03-22T06:20:22.772Z,2.700
2023-03-22T06:22:22.366Z,2.299
2023-03-22T06:23:22.413Z,2.599
2023-03-22T06:24:22.406Z,2.5
2023-03-22T06:25:22.470Z,2.099
2023-03-22T06:26:22.514Z,2.400
2023-03-22T06:28:22.253Z,2.599
2023-03-22T06:29:22.655Z,2.200
2023-03-22T06:30:23.135Z,2.099
2023-03-22T06:31:22.845Z,2.700
2023-03-22T06:32:22.957Z,2.400
2023-03-22T06:35:41.162Z,2.599
2023-03-22T06:36:22.861Z,2.400
2023-03-22T06:38:22.713Z,2.5
2023-03-22T06:39:22.705Z,2.599
2023-03-22T06:40:22.672Z,2.400
2023-03-22T06:41:22.314Z,2.299
2023-03-22T06:42:23.181Z,2.5
2023-03-22T06:43:22.773Z,2.299
2023-03-22T06:44:22.796Z,2.5
2023-03-22T06:45:23.341Z,2.700
2023-03-22T06:46:22.845Z,2.5
2023-03-22T06:47:22.926Z,2.400
2023-03-22T06:48:22.846Z,2.5
2023-03-22T06:49:22.771Z,2.200
2023-03-22T06:50:23.820Z,2.400
2023-03-22T06:52:22.955Z,2.299
2023-03-22T06:53:23.715Z,2.599
2023-03-22T06:54:23.726Z,2.400
2023-03-22T06:55:22.832Z,2.299
2023-03-22T06:56:23.177Z,2.700
2023-03-22T06:57:22.748Z,2.200
2023-03-22T06:58:23.151Z,2.400
2023-03-22T07:00:26.079Z,2.200
2023-03-22T07:01:23.423Z,2.400
2023-03-22T07:02:22.966Z,2.200
2023-03-22T07:04:23.078Z,2.099
2023-03-22T07:05:22.714Z,2
2023-03-22T07:06:22.930Z,2.400
2023-03-22T07:07:23.112Z,2.299
2023-03-22T07:09:22.401Z,2.200
2023-03-22T07:10:22.496Z,2.099
2023-03-22T07:11:22.960Z,2.200
2023-03-22T07:12:22.938Z,2.299
2023-03-22T07:13:22.687Z,2.200
2023-03-22T07:16:22.810Z,2.299
2023-03-22T07:17:22.697Z,2
2023-03-22T07:18:23.580Z,2.099
2023-03-22T07:19:23.443Z,2.299
2023-03-22T07:20:22.875Z,2.5
2023-03-22T07:21:23.005Z,2.299
2023-03-22T07:22:22.910Z,2.200
2023-03-22T07:24:22.659Z,2.400
2023-03-22T07:25:22.877Z,2.200
2023-03-22T07:26:23.920Z,2.099
2023-03-22T07:27:23.267Z,2
2023-03-22T07:28:22.833Z,2.099
2023-03-22T07:30:23.822Z,2.299
2023-03-22T07:32:22.980Z,2.400
2023-03-22T07:33:23.035Z,2.099
2023-03-22T07:37:23.208Z,2
2023-03-22T07:38:22.944Z,2.200
2023-03-22T07:39:22.913Z,2.099
2023-03-22T07:40:22.999Z,2.299
2023-03-22T07:41:22.479Z,2.200
2023-03-22T07:43:22.494Z,1.899
2023-03-22T07:44:22.471Z,2.099
2023-03-22T07:45:22.879Z,2
2023-03-22T07:46:23.136Z,1.899
2023-03-22T07:47:39.467Z,1.600
2023-03-22T07:48:23.226Z,2.200
2023-03-22T07:49:22.985Z,1.899
2023-03-22T07:50:23.277Z,1.799
2023-03-22T07:52:23.325Z,1.700
2023-03-22T07:53:23.067Z,1.899
2023-03-22T07:56:23.077Z,1.600
2023-03-22T07:57:22.865Z,1.899
2023-03-22T07:58:22.614Z,1.399
2023-03-22T07:59:22.971Z,1.700
2023-03-22T08:00:24.996Z,1.5
2023-03-22T08:01:23.159Z,1.899
2023-03-22T08:02:23.187Z,1.799
2023-03-22T08:03:22.578Z,2
2023-03-22T08:04:22.781Z,1.600
2023-03-22T08:05:23.261Z,1.5
2023-03-22T08:06:22.881Z,1.899
2023-03-22T08:07:22.977Z,1.799
2023-03-22T08:08:22.792Z,1.600
2023-03-22T08:09:22.652Z,1.799
2023-03-22T08:10:23.849Z,1.5
2023-03-22T08:11:22.692Z,1.899
2023-03-22T08:12:23.020Z,1.700
2023-03-22T08:13:22.541Z,1.5
2023-03-22T08:14:34.087Z,1.600
2023-03-22T08:16:23.159Z,1.5
2023-03-22T08:19:23.212Z,1.700
2023-03-22T08:20:23.611Z,1.600
2023-03-22T08:21:23.024Z,1.700
2023-03-22T08:23:38.482Z,1.5
2023-03-22T08:24:28.474Z,1.200
2023-03-22T08:25:23.144Z,1.5
2023-03-22T08:28:22.915Z,1.700
2023-03-22T08:29:23.812Z,1.5
2023-03-22T08:30:23.802Z,1.700
2023-03-22T08:31:23.215Z,1.399
2023-03-22T08:32:22.711Z,1.5
2023-03-22T08:35:22.779Z,1.700
2023-03-22T08:36:23.849Z,1.299
2023-03-22T08:37:24.325Z,1.600
2023-03-22T08:38:22.867Z,1.5
2023-03-22T08:41:23.003Z,1.600
2023-03-22T08:42:22.866Z,1.5
2023-03-22T08:44:23.751Z,1.600
2023-03-22T08:45:22.970Z,1.5
2023-03-22T08:46:23.439Z,1.299
2023-03-22T08:48:22.740Z,1.5
2023-03-22T08:49:23.445Z,1.399
2023-03-22T08:50:23.475Z,1.5
2023-03-22T08:51:22.660Z,1.399
2023-03-22T08:52:23.268Z,1.700
2023-03-22T08:53:23.059Z,1.399
2023-03-22T08:54:23.334Z,1.5
2023-03-22T08:55:22.989Z,1.600
2023-03-22T08:56:22.987Z,1.299
2023-03-22T08:57:23.253Z,1.600
2023-03-22T08:58:22.832Z,1.299
2023-03-22T09:01:23.410Z,1.399
2023-03-22T09:02:22.911Z,1.299
2023-03-22T09:03:23.850Z,1.200
2023-03-22T09:04:23.952Z,1.5
2023-03-22T09:05:23.787Z,1.200
2023-03-22T09:06:23.220Z,1.5
2023-03-22T09:07:22.849Z,1.200
2023-03-22T09:08:22.870Z,1.5
2023-03-22T09:09:23.117Z,1.299
2023-03-22T09:10:23.448Z,1.200
2023-03-22T09:11:23.959Z,1
2023-03-22T09:12:22.781Z,1.200
2023-03-22T09:13:22.766Z,1.299
2023-03-22T09:17:25.779Z,1.100
2023-03-22T09:18:23.086Z,1.5
2023-03-22T09:19:23.141Z,1.100
2023-03-22T09:20:23.705Z,1.200
2023-03-22T09:22:23.072Z,1.100
2023-03-22T09:23:22.899Z,1.200
2023-03-22T09:24:23.619Z,1
2023-03-22T09:25:24.100Z,1.100
2023-03-22T09:27:22.627Z,1.299
2023-03-22T09:28:22.743Z,1.100
2023-03-22T09:29:23.816Z,1.200
2023-03-22T09:30:23.687Z,1.100
2023-03-22T09:31:23.608Z,0.899
2023-03-22T09:32:23.064Z,1
2023-03-22T09:33:23.123Z,1.299
2023-03-22T09:35:23.905Z,1
2023-03-22T09:37:23.518Z,1.200
2023-03-22T09:38:23.359Z,1.100
2023-03-22T09:39:23.450Z,1.299
2023-03-22T09:40:23.476Z,1.100
2023-03-22T09:43:22.748Z,1.200
2023-03-22T09:44:23.448Z,1.100
2023-03-22T09:45:23.712Z,1.200
2023-03-22T09:46:22.989Z,1.299
2023-03-22T09:49:23.803Z,1.200
2023-03-22T09:50:22.899Z,1.100
2023-03-22T09:51:23.427Z,1.200
2023-03-22T09:52:23.076Z,1.299
2023-03-22T09:53:22.969Z,1.100
2023-03-22T09:54:23.331Z,1.200
2023-03-22T09:55:23.133Z,1
2023-03-22T09:56:23.366Z,1.100
2023-03-22T09:57:23.725Z,1.299
2023-03-22T09:58:23.001Z,1.100
2023-03-22T09:59:23.390Z,1.299
2023-03-22T10:00:24.482Z,1
2023-03-22T10:01:24.008Z,1.100
2023-03-22T10:02:23.696Z,1
2023-03-22T10:03:23.648Z,1.200
2023-03-22T10:05:25.916Z,1
2023-03-22T10:06:22.774Z,1.100
2023-03-22T10:07:22.408Z,1.299
2023-03-22T10:09:23.833Z,1.399
2023-03-22T10:10:23.075Z,1.100
2023-03-22T10:12:23.269Z,1
2023-03-22T10:13:23.202Z,0.899
2023-03-22T10:14:23.848Z,1.100
2023-03-22T10:15:23.807Z,1.200
2023-03-22T10:16:23.176Z,1.299
2023-03-22T10:17:23.297Z,1.399
2023-03-22T10:18:23.812Z,1.299
2023-03-22T10:19:23.241Z,1
2023-03-22T10:20:23.967Z,1.100
2023-03-22T10:21:23.754Z,1.299
2023-03-22T10:22:23.101Z,1.399
2023-03-22T10:23:23.343Z,1.5
2023-03-22T10:24:24.284Z,1
2023-03-22T10:25:24.211Z,1.200
2023-03-22T10:26:23.333Z,1.299
2023-03-22T10:27:23.419Z,1.200
2023-03-22T10:29:23.114Z,1.299
2023-03-22T10:30:24.132Z,1.399
2023-03-22T10:32:23.759Z,1.200
2023-03-22T10:33:24.038Z,1.299
2023-03-22T10:35:23.302Z,1.399
2023-03-22T10:36:23.679Z,1.100
2023-03-22T10:37:23.893Z,1.399
2023-03-22T10:38:23.382Z,1.299
2023-03-22T10:40:23.137Z,1.399
2023-03-22T10:41:24.148Z,1.299
2023-03-22T10:43:23.387Z,1.200
2023-03-22T10:44:23.916Z,1.299
2023-03-22T10:45:24.896Z,1.200
2023-03-22T10:46:23.326Z,1.5
2023-03-22T10:47:23.549Z,1.399
2023-03-22T10:49:23.709Z,1.299
2023-03-22T10:50:23.690Z,1.5
2023-03-22T10:51:23.601Z,1.200
2023-03-22T10:53:23.740Z,1.399
2023-03-22T10:54:25.993Z,1.5
2023-03-22T10:55:24.274Z,1.299
2023-03-22T10:56:23.498Z,1.600
2023-03-22T10:57:23.783Z,1.399
2023-03-22T10:58:23.568Z,1.200
2023-03-22T11:00:26.140Z,1.299
2023-03-22T11:01:30.928Z,1.5
2023-03-22T11:02:25.191Z,1.399
2023-03-22T11:05:30.786Z,1.299
2023-03-22T11:06:23.474Z,1.200
2023-03-22T11:07:22.981Z,1.399
2023-03-22T11:08:23.353Z,1.299
2023-03-22T11:09:23.614Z,1.5
2023-03-22T11:11:23.522Z,1.200
2023-03-22T11:12:23.602Z,1.5
2023-03-22T11:14:24.281Z,1.399
2023-03-22T11:16:23.455Z,1.5
2023-03-22T11:17:38.141Z,1.399
2023-03-22T11:18:23.870Z,1.299
2023-03-22T11:19:23.856Z,1.399
2023-03-22T11:20:23.401Z,1.299
2023-03-22T11:21:38.270Z,1.700
2023-03-22T11:22:23.623Z,1.5
2023-03-22T11:23:23.618Z,1.200
2023-03-22T11:24:23.518Z,1.5
2023-03-22T11:29:22.876Z,1.299
2023-03-22T11:30:23.708Z,1.399
2023-03-22T11:31:23.728Z,1.5
2023-03-22T11:32:23.577Z,1.600
2023-03-22T11:33:23.681Z,1.399
2023-03-22T11:34:23.661Z,1.600
2023-03-22T11:35:23.299Z,1.399
2023-03-22T11:36:23.242Z,1.5
2023-03-22T11:37:23.468Z,1.399
2023-03-22T11:39:23.497Z,1.299
2023-03-22T11:41:23.575Z,1.200
2023-03-22T11:42:23.521Z,1.299
2023-03-22T11:44:27.197Z,1.399
2023-03-22T11:46:23.234Z,1.299
2023-03-22T11:48:28.111Z,1.5
2023-03-22T11:49:23.466Z,1.399
2023-03-22T11:50:23.717Z,1.200
2023-03-22T11:51:23.945Z,1.5
2023-03-22T11:52:23.150Z,1.399
2023-03-22T11:53:23.466Z,1.600
2023-03-22T11:54:24.063Z,1.5
2023-03-22T11:55:24.316Z,1.399
2023-03-22T11:57:23.751Z,1.5
2023-03-22T11:58:24.141Z,1.299
2023-03-22T11:59:23.589Z,1.200
2023-03-22T12:00:24.080Z,1.5
2023-03-22T12:01:24.003Z,1.200
2023-03-22T12:02:24.187Z,1.299
2023-03-22T12:03:23.964Z,1.200
2023-03-22T12:04:24.452Z,1.5
2023-03-22T12:06:23.467Z,1.700
2023-03-22T12:07:22.845Z,1.299
2023-03-22T12:08:23.055Z,1.399
2023-03-22T12:09:23.578Z,1.299
2023-03-22T12:12:23.241Z,1.399
2023-03-22T12:14:24.062Z,1.299
2023-03-22T12:15:24.098Z,1.700
2023-03-22T12:16:24.944Z,1.5
2023-03-22T12:17:23.560Z,1.399
2023-03-22T12:19:24.189Z,1.600
2023-03-22T12:20:24.380Z,1.299
2023-03-22T12:21:24.125Z,1.399
2023-03-22T12:22:24.637Z,1.600
2023-03-22T12:23:23.989Z,1.5
2023-03-22T12:25:24.265Z,1.600
2023-03-22T12:26:23.488Z,1.700
2023-03-22T12:27:23.874Z,1.399
2023-03-22T12:28:23.645Z,1.5
2023-03-22T12:31:23.797Z,1.600
2023-03-22T12:32:23.660Z,1.399
2023-03-22T12:34:23.600Z,1.5
2023-03-22T12:40:23.993Z,1.299
2023-03-22T12:41:23.295Z,1.5
2023-03-22T12:42:23.394Z,1.700
2023-03-22T12:43:23.007Z,1.5
2023-03-22T12:44:23.870Z,1.399
2023-03-22T12:47:24.814Z,1.799
2023-03-22T12:48:24.371Z,1.700
2023-03-22T12:49:24.324Z,1.899
2023-03-22T12:50:24.352Z,1.5
2023-03-22T12:51:23.731Z,1.600
2023-03-22T12:52:23.327Z,1.5
2023-03-22T12:53:23.601Z,1.399
2023-03-22T12:54:24.277Z,1.5
2023-03-22T12:55:24.669Z,1.399
2023-03-22T12:56:23.957Z,1.5
2023-03-22T12:57:24.086Z,1.600
2023-03-22T12:58:23.549Z,1.700
2023-03-22T13:00:25.172Z,1.299
2023-03-22T13:01:23.976Z,1.200
2023-03-22T13:02:23.521Z,1.5
2023-03-22T13:04:23.520Z,1.200
2023-03-22T13:05:24.357Z,1.5
2023-03-22T13:06:23.171Z,1.399
2023-03-22T13:07:23.286Z,1.700
2023-03-22T13:09:23.976Z,1.399
2023-03-22T13:10:24.043Z,1.5
2023-03-22T13:11:23.832Z,1.299
2023-03-22T13:12:23.266Z,1.5
2023-03-22T13:13:23.327Z,1.399
2023-03-22T13:16:23.209Z,1.5
2023-03-22T13:17:23.954Z,1.600
2023-03-22T13:19:23.497Z,1.5
2023-03-22T13:21:24.020Z,1.600
2023-03-22T13:22:29.152Z,1.399
2023-03-22T13:23:23.476Z,1.5
2023-03-22T13:25:23.830Z,1.799
2023-03-22T13:26:28.839Z,1.5
2023-03-22T13:27:23.855Z,1.600
2023-03-22T13:30:23.866Z,1.799
2023-03-22T13:31:23.997Z,1.5
2023-03-22T13:32:23.724Z,1.700
2023-03-22T13:33:23.433Z,1.899
2023-03-22T13:34:31.676Z,1.5
2023-03-22T13:35:23.967Z,1.700
2023-03-22T13:36:24.157Z,1.600
2023-03-22T13:37:23.842Z,1.700
2023-03-22T13:38:23.891Z,1.399
2023-03-22T13:39:24.352Z,1.700
2023-03-22T13:40:23.849Z,1.299
2023-03-22T13:41:23.810Z,1.399
2023-03-22T13:42:23.501Z,1.299
2023-03-22T13:43:23.929Z,1.600
2023-03-22T13:44:24.215Z,1.200
2023-03-22T13:45:24.420Z,1.600
2023-03-22T13:46:23.636Z,1.299
2023-03-22T13:48:23.638Z,1.399
2023-03-22T13:49:22.913Z,1.200
2023-03-22T13:50:23.631Z,1.5
2023-03-22T13:51:22.947Z,1.399
2023-03-22T13:54:23.499Z,1.5
2023-03-22T13:55:24.137Z,1
2023-03-22T13:56:42.666Z,1.5
2023-03-22T13:57:23.298Z,1.299
2023-03-22T14:00:24.618Z,1.5
2023-03-22T14:01:23.619Z,1.399
2023-03-22T14:03:23.573Z,1.299
2023-03-22T14:05:23.752Z,1.5
2023-03-22T14:06:22.778Z,1.299
2023-03-22T14:07:23.017Z,1.399
2023-03-22T14:08:22.772Z,1.299
2023-03-22T14:09:24.103Z,1.600
2023-03-22T14:10:23.572Z,1.399
2023-03-22T14:12:23.489Z,1.299
2023-03-22T14:13:23.112Z,1.200
2023-03-22T14:14:23.419Z,1.5
2023-03-22T14:15:24.507Z,1.399
2023-03-22T14:17:23.583Z,1.600
2023-03-22T14:18:23.545Z,1.399
2023-03-22T14:20:23.906Z,1.5
2023-03-22T14:21:23.801Z,1.399
2023-03-22T14:52:24.059Z,1.399
2023-03-22T14:53:24.282Z,1.700
2023-03-22T14:54:23.991Z,1.200
2023-03-22T14:55:23.370Z,1.600
2023-03-22T14:56:23.565Z,1.299
2023-03-22T14:57:28.472Z,1.399
2023-03-22T14:58:23.722Z,1.200
2023-03-22T14:59:23.513Z,1.5
2023-03-22T15:00:26.089Z,1.399
2023-03-22T15:01:23.803Z,1.200
2023-03-22T15:02:24.235Z,1.5
2023-03-22T15:03:24.816Z,1.200
2023-03-22T15:04:24.830Z,1.399
2023-03-22T15:07:24.178Z,1.299
2023-03-22T15:08:23.827Z,1.200
2023-03-22T15:10:23.897Z,1.299
2023-03-22T15:11:23.593Z,1.399
2023-03-22T15:12:23.863Z,1.600
2023-03-22T15:13:23.713Z,1.5
2023-03-22T15:14:23.955Z,1.399
2023-03-22T15:15:23.605Z,1.5
2023-03-22T15:16:23.030Z,1.600
2023-03-22T15:17:23.649Z,2
2023-03-22T15:18:23.221Z,1.600
2023-03-22T15:20:22.991Z,1.700
2023-03-22T15:21:23.176Z,1.399
2023-03-22T15:22:24.096Z,1.700
2023-03-22T15:23:23.592Z,1.600
2023-03-22T15:25:24.143Z,1.5
2023-03-22T15:26:23.946Z,1.299
2023-03-22T15:27:23.720Z,1.5
2023-03-22T15:28:24.034Z,1.799
2023-03-22T15:29:24.360Z,1.5
2023-03-22T15:31:23.335Z,1.399
2023-03-22T15:33:23.652Z,1.200
2023-03-22T15:34:24.066Z,1.399
2023-03-22T15:36:23.057Z,1.299
2023-03-22T15:37:23.931Z,1.600
2023-03-22T15:38:32.192Z,1.5
2023-03-22T15:39:23.825Z,1.700
2023-03-22T15:40:23.646Z,1.5
2023-03-22T15:42:23.418Z,1.299
2023-03-22T15:46:23.669Z,1.399
2023-03-22T15:47:22.999Z,1.200
2023-03-22T15:48:23.582Z,1.399
2023-03-22T15:49:28.929Z,1.700
2023-03-22T15:50:23.399Z,1.5
2023-03-22T15:51:23.391Z,1.399
2023-03-22T15:52:23.109Z,1.299
2023-03-22T15:57:23.792Z,1.399
2023-03-22T15:58:24.039Z,1.600
2023-03-22T15:59:23.997Z,1.200
2023-03-22T16:00:24.340Z,1.899
2023-03-22T16:01:37.523Z,1.299
2023-03-22T16:03:23.863Z,1.5
2023-03-22T16:05:23.779Z,1.299
2023-03-22T16:06:24.016Z,1.5
2023-03-22T16:07:24.412Z,1.299
2023-03-22T16:08:23.973Z,1.5
2023-03-22T16:09:24.075Z,1.299
2023-03-22T16:10:24.525Z,1.5
2023-03-22T16:11:23.487Z,1.299
2023-03-22T16:12:23.602Z,1.399
2023-03-22T16:13:23.451Z,1.600
2023-03-22T16:14:23.658Z,1.700
2023-03-22T16:15:24.057Z,1.299
2023-03-22T16:16:23.614Z,1.5
2023-03-22T16:18:23.454Z,1.399
2023-03-22T16:19:23.577Z,1.5
2023-03-22T16:20:24.180Z,1.299
2023-03-22T16:21:24.629Z,1.600